Aviation Digital Data Service (ADDS)

Output produced by METARs form (0834 UTC 31 January 2015)
found at http://aviationweather.gov/adds/metars/
 
KLFT 310520Z 3106/0106 07003KT P6SM BKN200 
     FM311500 10008KT P6SM FEW025 SCT050 OVC200 
     FM010400 10005KT P6SM VCSH SCT025 OVC035